Dobbs Ferry, New York
Current Conditions -  °F | °C
As of 10:56 AM on Thursday 27 Nov 2014 (Local Time) from KHPN Reporting Station
Light Snow Light Snow  
Wind Chill: 26°   Ceiling: 5000
Heat Index: 34°   Visibility: 3mi
Dew Point: 28°   Wind: 10mph
Humidity: 79%   Direction: 330°NNW
Pressure: 29.97"   Gusts: NA
Location:  41.02°N, 73.87°W
Report Text: KHPN 271556Z 33009KT 3SM -SN SCT020 OVC050 01/M02 A2997 RMK AO2 SNB08 SLP156 P0000 T00111022
Loading
Personal Weather Stations






























Interactive Weather Map New forecast layout! Learn more

10-Day Weather Forecast

Advertisements
Track Severe Weather on mobile